createdAt,value
2023-02-27T00:00:15.044Z,0.90
2023-02-27T00:02:47.473Z,0.90
2023-02-27T00:05:15.015Z,0.90
2023-02-27T00:07:42.092Z,0.90
2023-02-27T00:10:10.612Z,0.90
2023-02-27T00:12:39.038Z,0.90
2023-02-27T00:15:11.096Z,0.90
2023-02-27T00:17:38.427Z,0.90
2023-02-27T00:20:07.860Z,0.90
2023-02-27T00:22:34.987Z,0.90
2023-02-27T00:25:02.227Z,1.00
2023-02-27T00:27:29.281Z,0.90
2023-02-27T00:29:56.295Z,1.00
2023-02-27T00:32:23.522Z,1.00
2023-02-27T00:34:50.611Z,1.00
2023-02-27T00:37:17.962Z,0.90
2023-02-27T00:39:45.193Z,0.90
2023-02-27T00:42:12.205Z,1.00
2023-02-27T00:44:40.998Z,1.00
2023-02-27T00:47:08.185Z,1.00
2023-02-27T00:49:35.247Z,1.00
2023-02-27T00:52:02.307Z,1.00
2023-02-27T00:54:30.068Z,1.00
2023-02-27T00:56:57.049Z,1.00
2023-02-27T00:59:24.140Z,1.00
2023-02-27T01:01:52.965Z,1.00
2023-02-27T01:04:20.031Z,1.00
2023-02-27T01:06:47.215Z,1.00
2023-02-27T01:09:14.292Z,1.00
2023-02-27T01:11:41.304Z,1.00
2023-02-27T01:14:08.804Z,1.00
2023-02-27T01:16:35.824Z,1.00
2023-02-27T01:19:03.222Z,1.00
2023-02-27T01:21:30.381Z,1.00
2023-02-27T01:23:57.469Z,1.00
2023-02-27T01:26:24.732Z,1.00
2023-02-27T01:28:51.795Z,1.00
2023-02-27T01:31:18.988Z,1.00
2023-02-27T01:33:49.037Z,1.00
2023-02-27T01:36:16.169Z,1.00
2023-02-27T01:38:43.249Z,1.00
2023-02-27T01:41:10.509Z,1.00
2023-02-27T01:44:10.246Z,1.00
2023-02-27T01:46:38.566Z,1.00
2023-02-27T01:49:12.073Z,1.00
2023-02-27T01:51:45.162Z,1.00
2023-02-27T01:54:14.550Z,1.00
2023-02-27T01:56:42.713Z,1.00
2023-02-27T01:59:12.125Z,1.00
2023-02-27T02:01:39.301Z,1.00
2023-02-27T02:04:25.926Z,1.00
2023-02-27T02:07:03.182Z,1.00
2023-02-27T02:09:31.211Z,0.90
2023-02-27T02:11:59.472Z,1.00
2023-02-27T02:14:26.667Z,0.90
2023-02-27T02:17:45.519Z,0.90
2023-02-27T02:20:30.779Z,0.90
2023-02-27T02:23:22.035Z,0.90
2023-02-27T02:26:18.563Z,0.80
2023-02-27T02:28:50.521Z,0.80
2023-02-27T02:31:26.954Z,0.80
2023-02-27T02:34:15.515Z,0.80
2023-02-27T02:37:18.834Z,0.70
2023-02-27T02:39:58.543Z,0.70
2023-02-27T02:42:35.021Z,0.70
2023-02-27T02:45:17.220Z,0.70
2023-02-27T02:47:47.587Z,0.70
2023-02-27T02:50:41.014Z,0.70
2023-02-27T02:53:37.756Z,0.60
2023-02-27T02:56:23.834Z,0.60
2023-02-27T02:58:59.711Z,0.60
2023-02-27T03:01:34.638Z,0.60
2023-02-27T03:04:17.622Z,0.60
2023-02-27T03:06:52.186Z,0.60
2023-02-27T03:09:27.248Z,0.60
2023-02-27T03:12:00.008Z,0.60
2023-02-27T03:14:34.676Z,0.60
2023-02-27T03:17:08.036Z,0.60
2023-02-27T03:19:46.255Z,0.60
2023-02-27T03:22:21.713Z,0.60
2023-02-27T03:24:52.915Z,0.60
2023-02-27T03:27:22.351Z,0.70
2023-02-27T03:30:02.820Z,0.60
2023-02-27T03:32:53.212Z,0.60
2023-02-27T03:35:20.571Z,0.60
2023-02-27T03:38:15.057Z,0.60
2023-02-27T03:40:48.135Z,0.60
2023-02-27T03:43:25.477Z,0.60
2023-02-27T03:46:15.467Z,0.60
2023-02-27T03:48:45.534Z,0.60
2023-02-27T03:51:15.629Z,0.70
2023-02-27T03:54:09.824Z,0.60
2023-02-27T03:57:18.669Z,0.70
2023-02-27T03:59:46.081Z,0.70
2023-02-27T04:02:13.188Z,0.70
2023-02-27T04:04:40.435Z,0.70
2023-02-27T04:07:45.405Z,0.70
2023-02-27T04:10:33.053Z,0.70
2023-02-27T04:13:22.003Z,0.70
2023-02-27T04:16:26.599Z,0.70
2023-02-27T04:18:56.962Z,0.70
2023-02-27T04:21:30.350Z,0.70
2023-02-27T04:24:06.292Z,0.70
2023-02-27T04:26:42.289Z,0.70
2023-02-27T04:29:18.737Z,0.70
2023-02-27T04:32:02.622Z,0.70
2023-02-27T04:34:33.403Z,0.70
2023-02-27T04:37:14.815Z,0.70
2023-02-27T04:39:52.084Z,0.70
2023-02-27T04:42:24.230Z,0.70
2023-02-27T04:44:54.440Z,0.70
2023-02-27T04:47:23.217Z,0.70
2023-02-27T04:50:02.467Z,0.70
2023-02-27T04:52:38.136Z,0.70
2023-02-27T04:55:24.395Z,0.70
2023-02-27T04:58:12.361Z,0.70
2023-02-27T05:00:43.282Z,0.70
2023-02-27T05:03:18.595Z,0.70
2023-02-27T05:05:48.762Z,0.70
2023-02-27T05:08:22.280Z,0.70
2023-02-27T05:11:18.309Z,0.70
2023-02-27T05:13:53.701Z,0.70
2023-02-27T05:16:28.228Z,0.80
2023-02-27T05:18:56.517Z,0.80
2023-02-27T05:21:30.725Z,0.80
2023-02-27T05:24:00.640Z,0.80
2023-02-27T05:26:45.868Z,0.80
2023-02-27T05:29:50.376Z,0.80
2023-02-27T05:32:37.402Z,0.80
2023-02-27T05:35:14.439Z,0.90
2023-02-27T05:38:29.117Z,0.90
2023-02-27T05:41:09.356Z,0.90
2023-02-27T05:43:53.881Z,0.90
2023-02-27T05:46:32.071Z,1.00
2023-02-27T05:49:04.900Z,1.00
2023-02-27T05:51:35.680Z,1.00
2023-02-27T05:54:24.915Z,1.00
2023-02-27T05:56:54.815Z,0.90
2023-02-27T05:59:34.280Z,0.90
2023-02-27T06:02:01.582Z,1.00
2023-02-27T06:04:28.980Z,1.00
2023-02-27T06:06:57.192Z,1.00
2023-02-27T06:09:24.357Z,1.00
2023-02-27T06:11:51.458Z,0.90
2023-02-27T06:14:18.413Z,1.00
2023-02-27T06:16:45.504Z,1.00
2023-02-27T06:19:12.826Z,1.00
2023-02-27T06:21:39.793Z,1.00
2023-02-27T06:24:07.004Z,1.00
2023-02-27T06:26:34.337Z,1.00
2023-02-27T06:29:01.351Z,1.00
2023-02-27T06:31:28.394Z,1.00
2023-02-27T06:33:55.805Z,1.00
2023-02-27T06:36:23.172Z,1.00
2023-02-27T06:38:50.452Z,1.10
2023-02-27T06:41:17.444Z,1.10
2023-02-27T06:43:44.499Z,1.00
2023-02-27T06:46:11.682Z,1.10
2023-02-27T06:48:38.789Z,1.10
2023-02-27T06:51:05.875Z,1.10
2023-02-27T06:53:33.513Z,1.10
2023-02-27T06:56:00.564Z,1.00
2023-02-27T06:58:27.526Z,1.00
2023-02-27T07:00:54.561Z,1.10
2023-02-27T07:03:21.528Z,1.10
2023-02-27T07:05:48.449Z,1.10
2023-02-27T07:08:17.640Z,1.10
2023-02-27T07:10:47.123Z,1.20
2023-02-27T07:13:17.294Z,1.10
2023-02-27T07:15:45.610Z,1.10
2023-02-27T07:18:12.805Z,1.20
2023-02-27T07:20:40.383Z,1.20
2023-02-27T07:23:07.607Z,1.30
2023-02-27T07:25:34.644Z,1.30
2023-02-27T07:28:01.789Z,1.30
2023-02-27T07:30:30.877Z,1.30
2023-02-27T07:32:58.199Z,1.30
2023-02-27T07:35:25.677Z,1.30
2023-02-27T07:37:52.852Z,1.40
2023-02-27T07:40:19.951Z,1.40
2023-02-27T07:42:52.744Z,1.50
2023-02-27T07:45:20.190Z,1.50
2023-02-27T07:47:47.607Z,1.60
2023-02-27T07:50:14.640Z,1.70
2023-02-27T07:52:42.951Z,1.80
2023-02-27T07:55:11.742Z,1.80
2023-02-27T07:57:39.117Z,1.80
2023-02-27T08:00:07.741Z,1.80
2023-02-27T08:02:39.458Z,1.90
2023-02-27T08:05:07.452Z,1.80
2023-02-27T08:07:34.528Z,1.80
2023-02-27T08:10:01.447Z,1.90
2023-02-27T08:12:28.520Z,2.00
2023-02-27T08:14:55.650Z,2.00
2023-02-27T08:17:22.622Z,2.00
2023-02-27T08:19:49.569Z,2.20
2023-02-27T08:22:16.635Z,2.30
2023-02-27T08:24:43.680Z,2.40
2023-02-27T08:27:10.708Z,2.10
2023-02-27T08:29:37.732Z,2.00
2023-02-27T08:32:05.218Z,2.00
2023-02-27T08:34:32.314Z,2.20
2023-02-27T08:36:59.528Z,2.10
2023-02-27T08:39:26.554Z,2.20
2023-02-27T08:41:53.770Z,2.30
2023-02-27T08:44:20.911Z,2.30
2023-02-27T08:46:47.931Z,2.40
2023-02-27T08:49:15.077Z,2.50
2023-02-27T08:51:42.299Z,2.60
2023-02-27T08:54:09.427Z,2.60
2023-02-27T08:56:36.545Z,2.70
2023-02-27T08:59:03.749Z,2.80
2023-02-27T09:01:34.555Z,2.80
2023-02-27T09:04:03.862Z,2.60
2023-02-27T09:06:31.993Z,2.60
2023-02-27T09:08:59.726Z,2.70
2023-02-27T09:11:28.502Z,2.80
2023-02-27T09:13:56.356Z,2.90
2023-02-27T09:16:24.296Z,3.00
2023-02-27T09:18:51.566Z,3.20
2023-02-27T09:21:18.844Z,3.10
2023-02-27T09:23:45.991Z,3.20
2023-02-27T09:26:13.431Z,3.40
2023-02-27T09:28:40.528Z,3.40
2023-02-27T09:31:08.282Z,3.40
2023-02-27T09:33:37.449Z,3.60
2023-02-27T09:36:06.577Z,3.60
2023-02-27T09:38:35.111Z,3.60
2023-02-27T09:41:02.499Z,3.70
2023-02-27T09:43:54.135Z,3.60
2023-02-27T09:46:25.799Z,3.60
2023-02-27T09:48:56.135Z,3.60
2023-02-27T09:51:23.617Z,3.50
2023-02-27T09:53:54.230Z,3.50
2023-02-27T09:56:32.517Z,3.30
2023-02-27T09:59:20.977Z,3.00
2023-02-27T10:02:12.346Z,3.00
2023-02-27T10:04:52.946Z,3.00
2023-02-27T10:07:35.601Z,2.90
2023-02-27T10:10:05.449Z,2.70
2023-02-27T10:12:38.554Z,2.50
2023-02-27T10:15:25.444Z,2.60
2023-02-27T10:18:20.242Z,2.50
2023-02-27T10:20:59.868Z,2.40
2023-02-27T10:23:49.825Z,2.40
2023-02-27T10:26:24.386Z,2.40
2023-02-27T10:28:51.423Z,2.30
2023-02-27T10:31:26.974Z,2.30
2023-02-27T10:33:55.746Z,2.40
2023-02-27T10:36:33.749Z,2.50
2023-02-27T10:39:11.139Z,2.70
2023-02-27T10:41:39.972Z,2.70
2023-02-27T10:44:07.524Z,2.70
2023-02-27T10:46:40.847Z,2.80
2023-02-27T10:49:19.282Z,2.80
2023-02-27T10:52:03.738Z,2.70
2023-02-27T10:54:31.271Z,2.50
2023-02-27T10:57:01.864Z,2.40
2023-02-27T10:59:35.563Z,2.40
2023-02-27T11:02:07.593Z,2.30
2023-02-27T11:04:39.886Z,2.20
2023-02-27T11:07:12.186Z,2.10
2023-02-27T11:09:39.334Z,2.10
2023-02-27T11:12:27.017Z,2.10
2023-02-27T11:15:00.179Z,2.00
2023-02-27T11:17:29.838Z,1.90
2023-02-27T11:19:57.979Z,1.70
2023-02-27T11:22:27.457Z,1.60
2023-02-27T11:25:21.365Z,1.60
2023-02-27T11:27:49.175Z,1.60
2023-02-27T11:30:27.326Z,1.70
2023-02-27T11:32:57.594Z,1.70
2023-02-27T11:35:38.686Z,1.70
2023-02-27T11:38:20.661Z,1.70
2023-02-27T11:40:58.418Z,1.80
2023-02-27T11:43:31.821Z,1.90
2023-02-27T11:46:04.920Z,1.80
2023-02-27T11:49:14.624Z,1.90
2023-02-27T11:51:50.691Z,1.90
2023-02-27T11:54:34.792Z,1.90
2023-02-27T11:57:28.428Z,1.90
2023-02-27T12:00:06.631Z,1.90
2023-02-27T12:02:42.661Z,2.10
2023-02-27T12:05:26.457Z,2.10
2023-02-27T12:08:05.846Z,2.00
2023-02-27T12:10:47.965Z,2.00
2023-02-27T12:13:39.801Z,2.10
2023-02-27T12:16:27.516Z,2.00
2023-02-27T12:19:07.690Z,2.10
2023-02-27T12:21:41.197Z,2.10
2023-02-27T12:24:10.742Z,2.20
2023-02-27T12:26:42.197Z,2.20
2023-02-27T12:29:26.405Z,2.20
2023-02-27T12:32:00.494Z,2.30
2023-02-27T12:34:34.699Z,2.30
2023-02-27T12:37:11.292Z,2.30
2023-02-27T12:39:40.166Z,2.30
2023-02-27T12:42:22.564Z,2.20
2023-02-27T12:44:49.693Z,2.30
2023-02-27T12:47:25.273Z,2.20
2023-02-27T12:50:21.431Z,2.10
2023-02-27T12:53:25.214Z,2.00
2023-02-27T12:56:01.263Z,2.10
2023-02-27T12:58:59.355Z,2.30
2023-02-27T13:01:41.102Z,2.40
2023-02-27T13:04:31.020Z,2.30
2023-02-27T13:07:04.409Z,2.20
2023-02-27T13:09:48.368Z,2.00
2023-02-27T13:12:28.787Z,2.10
2023-02-27T13:15:03.141Z,2.10
2023-02-27T13:17:46.004Z,2.00
2023-02-27T13:20:22.013Z,2.00
2023-02-27T13:23:02.790Z,1.80
2023-02-27T13:25:32.698Z,1.80
2023-02-27T13:28:04.444Z,1.90
2023-02-27T13:30:43.668Z,1.90
2023-02-27T13:33:43.022Z,2.00
2023-02-27T13:36:30.238Z,2.20
2023-02-27T13:38:57.460Z,2.00
2023-02-27T13:41:24.520Z,2.20
2023-02-27T13:43:53.246Z,2.20
2023-02-27T13:46:31.565Z,2.20
2023-02-27T13:49:04.807Z,2.10
2023-02-27T13:51:49.464Z,2.00
2023-02-27T13:54:16.559Z,1.90
2023-02-27T13:57:06.711Z,1.90
2023-02-27T13:59:36.761Z,1.80
2023-02-27T14:02:11.482Z,1.90
2023-02-27T14:04:51.591Z,1.70
2023-02-27T14:07:25.215Z,1.80
2023-02-27T14:10:08.888Z,1.70
2023-02-27T14:12:46.795Z,1.60
2023-02-27T14:15:22.843Z,1.70
2023-02-27T14:18:17.829Z,1.70
2023-02-27T14:20:51.396Z,1.70
2023-02-27T14:23:25.955Z,1.80
2023-02-27T14:26:16.524Z,1.90
2023-02-27T14:28:55.848Z,2.00
2023-02-27T14:31:30.220Z,2.00
2023-02-27T14:34:05.102Z,2.10
2023-02-27T14:36:42.859Z,2.10
2023-02-27T14:39:25.808Z,2.30
2023-02-27T14:42:24.760Z,2.30
2023-02-27T14:44:52.797Z,2.40
2023-02-27T14:47:37.005Z,2.40
2023-02-27T14:50:07.482Z,2.40
2023-02-27T14:52:42.848Z,2.40
2023-02-27T14:55:17.940Z,2.40
2023-02-27T14:58:01.790Z,2.30
2023-02-27T15:00:30.198Z,2.30
2023-02-27T15:02:58.962Z,2.30
2023-02-27T15:05:34.429Z,2.20
2023-02-27T15:08:02.089Z,2.20
2023-02-27T15:10:33.663Z,2.20
2023-02-27T15:13:02.020Z,2.10
2023-02-27T15:15:29.989Z,2.10
2023-02-27T15:17:57.090Z,2.10
2023-02-27T15:20:32.115Z,2.10
2023-02-27T15:23:02.106Z,2.10
2023-02-27T15:25:39.136Z,2.10
2023-02-27T15:28:19.608Z,2.10
2023-02-27T15:30:51.436Z,2.10
2023-02-27T15:33:22.012Z,2.00
2023-02-27T15:35:49.169Z,2.00
2023-02-27T15:38:30.915Z,2.00
2023-02-27T15:40:59.733Z,2.00
2023-02-27T15:43:28.458Z,2.00
2023-02-27T15:45:58.273Z,2.00
2023-02-27T15:48:26.162Z,2.00
2023-02-27T15:50:56.828Z,2.00
2023-02-27T15:53:29.054Z,2.00
2023-02-27T15:55:59.177Z,2.00
2023-02-27T15:58:33.053Z,2.00
2023-02-27T16:01:29.930Z,1.90
2023-02-27T16:04:00.211Z,1.80
2023-02-27T16:06:41.028Z,1.70
2023-02-27T16:09:21.830Z,1.70
2023-02-27T16:11:49.680Z,1.60
2023-02-27T16:14:36.311Z,1.60
2023-02-27T16:17:05.166Z,1.60
2023-02-27T16:19:32.786Z,1.60
2023-02-27T16:22:17.593Z,1.50
2023-02-27T16:24:45.305Z,1.50
2023-02-27T16:27:26.977Z,1.50
2023-02-27T16:29:56.633Z,1.50
2023-02-27T16:32:56.721Z,1.50
2023-02-27T16:35:25.037Z,1.40
2023-02-27T16:37:53.538Z,1.40
2023-02-27T16:40:23.143Z,1.40
2023-02-27T16:42:51.309Z,1.40
2023-02-27T16:45:25.533Z,1.40
2023-02-27T16:47:55.597Z,1.40
2023-02-27T16:50:40.774Z,1.40
2023-02-27T16:53:09.140Z,1.40
2023-02-27T16:55:40.738Z,1.40
2023-02-27T16:58:10.782Z,1.40
2023-02-27T17:00:37.923Z,1.40
2023-02-27T17:03:04.895Z,1.40
2023-02-27T17:05:32.042Z,1.40
2023-02-27T17:07:59.446Z,1.40
2023-02-27T17:10:26.760Z,1.40
2023-02-27T17:12:54.056Z,1.40
2023-02-27T17:15:21.327Z,1.40
2023-02-27T17:17:48.310Z,1.40
2023-02-27T17:20:15.394Z,1.40
2023-02-27T17:22:45.043Z,1.30
2023-02-27T17:25:12.968Z,1.30
2023-02-27T17:27:41.828Z,1.40
2023-02-27T17:30:09.809Z,1.30
2023-02-27T17:32:37.013Z,1.30
2023-02-27T17:35:04.419Z,1.30
2023-02-27T17:37:31.445Z,1.30
2023-02-27T17:39:58.571Z,1.40
2023-02-27T17:42:25.978Z,1.30
2023-02-27T17:44:53.226Z,1.30
2023-02-27T17:47:20.374Z,1.40
2023-02-27T17:49:47.762Z,1.40
2023-02-27T17:52:17.556Z,1.40
2023-02-27T17:54:44.574Z,1.40
2023-02-27T17:57:13.432Z,1.40
2023-02-27T17:59:41.031Z,1.40
2023-02-27T18:02:09.793Z,1.40
2023-02-27T18:04:36.917Z,1.40
2023-02-27T18:07:04.037Z,1.40
2023-02-27T18:09:31.153Z,1.40
2023-02-27T18:11:58.352Z,1.40
2023-02-27T18:14:25.851Z,1.40
2023-02-27T18:16:52.986Z,1.40
2023-02-27T18:19:20.156Z,1.30
2023-02-27T18:21:47.351Z,1.30
2023-02-27T18:24:16.139Z,1.30
2023-02-27T18:26:43.718Z,1.40
2023-02-27T18:29:14.085Z,1.40
2023-02-27T18:31:43.614Z,1.30
2023-02-27T18:34:11.119Z,1.30
2023-02-27T18:36:38.965Z,1.30
2023-02-27T18:39:06.549Z,1.30
2023-02-27T18:41:34.574Z,1.30
2023-02-27T18:44:01.707Z,1.30
2023-02-27T18:46:29.322Z,1.30
2023-02-27T18:48:57.006Z,1.20
2023-02-27T18:51:24.773Z,1.20
2023-02-27T18:53:52.196Z,1.30
2023-02-27T18:56:22.987Z,1.30
2023-02-27T18:58:51.503Z,1.30
2023-02-27T19:01:27.218Z,1.30
2023-02-27T19:04:00.318Z,1.30
2023-02-27T19:06:28.690Z,1.30
2023-02-27T19:08:56.115Z,1.30
2023-02-27T19:11:33.498Z,1.20
2023-02-27T19:14:01.949Z,1.20
2023-02-27T19:16:29.673Z,1.20
2023-02-27T19:19:01.606Z,1.20
2023-02-27T19:21:29.271Z,1.30
2023-02-27T19:23:56.538Z,1.30
2023-02-27T19:26:24.465Z,1.30
2023-02-27T19:28:55.577Z,1.30
2023-02-27T19:31:24.333Z,1.30
2023-02-27T19:33:51.588Z,1.30
2023-02-27T19:36:21.029Z,1.30
2023-02-27T19:38:48.939Z,1.30
2023-02-27T19:41:17.515Z,1.30
2023-02-27T19:43:44.950Z,1.30
2023-02-27T19:46:15.535Z,1.40
2023-02-27T19:48:43.271Z,1.30
2023-02-27T19:51:14.062Z,1.30
2023-02-27T19:53:42.889Z,1.20
2023-02-27T19:56:13.503Z,1.20
2023-02-27T19:58:40.975Z,1.20
2023-02-27T20:01:08.177Z,1.20
2023-02-27T20:03:36.545Z,1.20
2023-02-27T20:06:06.470Z,1.20
2023-02-27T20:08:34.251Z,1.30
2023-02-27T20:11:04.669Z,1.20
2023-02-27T20:13:32.092Z,1.20
2023-02-27T20:16:06.321Z,1.20
2023-02-27T20:18:34.132Z,1.20
2023-02-27T20:21:14.566Z,1.10
2023-02-27T20:23:43.288Z,1.20
2023-02-27T20:26:14.833Z,1.10
2023-02-27T20:28:42.257Z,1.10
2023-02-27T20:31:15.004Z,1.00
2023-02-27T20:33:43.237Z,1.00
2023-02-27T20:36:11.695Z,1.10
2023-02-27T20:38:39.643Z,1.10
2023-02-27T20:41:18.312Z,1.10
2023-02-27T20:43:45.791Z,1.10
2023-02-27T20:46:16.017Z,1.10
2023-02-27T20:48:43.915Z,1.10
2023-02-27T20:51:14.849Z,1.20
2023-02-27T20:53:43.899Z,1.10
2023-02-27T20:56:11.488Z,1.00
2023-02-27T20:58:39.301Z,1.10
2023-02-27T21:01:11.610Z,1.10
2023-02-27T21:03:40.503Z,1.10
2023-02-27T21:06:09.449Z,1.10
2023-02-27T21:08:37.694Z,1.10
2023-02-27T21:11:32.236Z,1.10
2023-02-27T21:14:04.359Z,1.10
2023-02-27T21:16:31.995Z,1.10
2023-02-27T21:18:59.300Z,1.00
2023-02-27T21:21:30.177Z,1.10
2023-02-27T21:23:58.339Z,1.10
2023-02-27T21:26:34.967Z,1.10
2023-02-27T21:29:10.883Z,1.10
2023-02-27T21:31:39.472Z,1.00
2023-02-27T21:34:11.484Z,1.00
2023-02-27T21:36:44.243Z,1.00
2023-02-27T21:39:20.389Z,1.10
2023-02-27T21:41:47.613Z,1.00
2023-02-27T21:44:16.898Z,1.00
2023-02-27T21:46:45.338Z,1.00
2023-02-27T21:49:18.748Z,1.00
2023-02-27T21:51:47.003Z,1.00
2023-02-27T21:54:15.539Z,1.00
2023-02-27T21:56:44.158Z,1.00
2023-02-27T21:59:12.136Z,1.00
2023-02-27T22:01:39.436Z,1.10
2023-02-27T22:04:07.165Z,1.10
2023-02-27T22:06:34.669Z,1.10
2023-02-27T22:09:05.142Z,1.10
2023-02-27T22:11:33.843Z,1.00
2023-02-27T22:14:01.281Z,1.00
2023-02-27T22:16:28.345Z,1.00
2023-02-27T22:18:55.434Z,1.00
2023-02-27T22:21:25.342Z,1.00
2023-02-27T22:23:53.193Z,0.90
2023-02-27T22:26:24.275Z,1.00
2023-02-27T22:28:52.437Z,1.00
2023-02-27T22:31:20.953Z,1.00
2023-02-27T22:33:50.183Z,1.00
2023-02-27T22:36:29.281Z,1.00
2023-02-27T22:38:57.326Z,1.00
2023-02-27T22:41:33.133Z,1.00
2023-02-27T22:44:02.372Z,0.90
2023-02-27T22:46:36.164Z,0.90
2023-02-27T22:49:10.284Z,1.00
2023-02-27T22:51:37.966Z,1.00
2023-02-27T22:54:06.147Z,0.90
2023-02-27T22:56:36.777Z,1.00
2023-02-27T22:59:05.532Z,0.90
2023-02-27T23:01:34.340Z,0.90
2023-02-27T23:04:04.122Z,0.90
2023-02-27T23:06:34.131Z,0.90
2023-02-27T23:09:01.794Z,0.90
2023-02-27T23:11:29.498Z,0.90
2023-02-27T23:13:57.017Z,0.90
2023-02-27T23:16:25.082Z,0.90
2023-02-27T23:18:54.632Z,0.90
2023-02-27T23:21:25.191Z,0.90
2023-02-27T23:23:57.724Z,0.90
2023-02-27T23:26:28.410Z,0.90
2023-02-27T23:28:56.788Z,0.90
2023-02-27T23:31:24.228Z,0.90
2023-02-27T23:33:51.266Z,0.80
2023-02-27T23:36:18.336Z,0.80
2023-02-27T23:38:46.735Z,0.80
2023-02-27T23:41:17.975Z,0.80
2023-02-27T23:43:45.269Z,0.80
2023-02-27T23:46:14.904Z,0.80
2023-02-27T23:48:42.918Z,0.70
2023-02-27T23:51:11.223Z,0.70
2023-02-27T23:53:40.400Z,0.70
2023-02-27T23:56:22.161Z,0.70
2023-02-27T23:58:54.782Z,0.70
